createdAt,value
2023-02-07T00:00:14.184Z,1015.22
2023-02-07T00:01:14.146Z,1015.22
2023-02-07T00:02:14.164Z,1015.23
2023-02-07T00:03:14.135Z,1015.23
2023-02-07T00:04:14.122Z,1015.21
2023-02-07T00:05:14.040Z,1015.19
2023-02-07T00:06:14.020Z,1015.17
2023-02-07T00:07:14.000Z,1015.17
2023-02-07T00:08:13.978Z,1015.13
2023-02-07T00:09:13.928Z,1015.17
2023-02-07T00:10:13.906Z,1015.17
2023-02-07T00:11:13.874Z,1015.17
2023-02-07T00:12:13.854Z,1015.17
2023-02-07T00:13:13.822Z,1015.11
2023-02-07T00:14:13.804Z,1015.06
2023-02-07T00:15:13.772Z,1015.06
2023-02-07T00:16:13.782Z,1015.03
2023-02-07T00:17:13.757Z,1015.01
2023-02-07T00:18:13.688Z,1014.94
2023-02-07T00:19:13.661Z,1015.01
2023-02-07T00:20:13.633Z,1014.99
2023-02-07T00:21:13.601Z,1015.08
2023-02-07T00:22:13.580Z,1015.09
2023-02-07T00:23:13.546Z,1015.10
2023-02-07T00:24:13.582Z,1015.17
2023-02-07T00:25:13.490Z,1015.14
2023-02-07T00:26:13.477Z,1015.20
2023-02-07T00:27:13.439Z,1015.24
2023-02-07T00:28:13.543Z,1015.25
2023-02-07T00:29:13.420Z,1015.29
2023-02-07T00:30:13.365Z,1015.30
2023-02-07T00:31:13.468Z,1015.38
2023-02-07T00:32:13.311Z,1015.35
2023-02-07T00:33:13.283Z,1015.38
2023-02-07T00:34:13.284Z,1015.29
2023-02-07T00:35:13.220Z,1015.31
2023-02-07T00:36:13.195Z,1015.26
2023-02-07T00:37:13.179Z,1015.28
2023-02-07T00:38:13.146Z,1015.34
2023-02-07T00:39:13.137Z,1015.32
2023-02-07T00:40:13.093Z,1015.30
2023-02-07T00:41:13.057Z,1015.37
2023-02-07T00:42:13.034Z,1015.41
2023-02-07T00:43:21.465Z,1015.43
2023-02-07T00:44:12.993Z,1015.41
2023-02-07T00:45:12.948Z,1015.46
2023-02-07T00:46:12.946Z,1015.45
2023-02-07T00:47:12.918Z,1015.54
2023-02-07T00:48:12.884Z,1015.54
2023-02-07T00:49:12.832Z,1015.57
2023-02-07T00:50:12.817Z,1015.48
2023-02-07T00:51:12.781Z,1015.49
2023-02-07T00:52:12.765Z,1015.45
2023-02-07T00:53:12.729Z,1015.46
2023-02-07T00:54:12.716Z,1015.44
2023-02-07T00:55:12.691Z,1015.42
2023-02-07T00:56:12.655Z,1015.37
2023-02-07T00:57:12.646Z,1015.35
2023-02-07T00:58:12.609Z,1015.33
2023-02-07T00:59:12.564Z,1015.28
2023-02-07T01:00:12.542Z,1015.26
2023-02-07T01:01:12.588Z,1015.29
2023-02-07T01:02:12.485Z,1015.24
2023-02-07T01:03:12.468Z,1015.22
2023-02-07T01:04:12.453Z,1015.30
2023-02-07T01:05:12.409Z,1015.26
2023-02-07T01:06:12.380Z,1015.28
2023-02-07T01:07:12.356Z,1015.34
2023-02-07T01:08:12.331Z,1015.32
2023-02-07T01:09:12.297Z,1015.29
2023-02-07T01:10:12.277Z,1015.30
2023-02-07T01:11:12.254Z,1015.33
2023-02-07T01:12:12.220Z,1015.32
2023-02-07T01:13:12.195Z,1015.34
2023-02-07T01:14:12.179Z,1015.38
2023-02-07T01:15:12.158Z,1015.38
2023-02-07T01:16:12.149Z,1015.37
2023-02-07T01:17:12.085Z,1015.37
2023-02-07T01:18:12.092Z,1015.31
2023-02-07T01:19:12.039Z,1015.31
2023-02-07T01:20:12.008Z,1015.29
2023-02-07T01:21:11.984Z,1015.26
2023-02-07T01:22:11.970Z,1015.27
2023-02-07T01:23:11.945Z,1015.22
2023-02-07T01:24:11.930Z,1015.29
2023-02-07T01:25:11.933Z,1015.30
2023-02-07T01:26:11.844Z,1015.27
2023-02-07T01:27:11.838Z,1015.29
2023-02-07T01:28:11.841Z,1015.30
2023-02-07T01:29:11.783Z,1015.32
2023-02-07T01:30:11.767Z,1015.22
2023-02-07T01:31:11.836Z,1015.29
2023-02-07T01:32:11.696Z,1015.25
2023-02-07T01:33:11.663Z,1015.06
2023-02-07T01:34:11.629Z,1015.23
2023-02-07T01:35:11.603Z,1015.27
2023-02-07T01:36:11.580Z,1015.26
2023-02-07T01:37:11.547Z,1015.26
2023-02-07T01:38:11.518Z,1015.29
2023-02-07T01:39:11.504Z,1015.31
2023-02-07T01:40:11.469Z,1015.29
2023-02-07T01:41:11.435Z,1015.26
2023-02-07T01:42:11.407Z,1015.29
2023-02-07T01:43:11.382Z,1015.26
2023-02-07T01:44:11.353Z,1015.25
2023-02-07T01:45:11.329Z,1015.26
2023-02-07T01:46:11.326Z,1015.22
2023-02-07T01:47:11.273Z,1015.22
2023-02-07T01:48:11.264Z,1015.26
2023-02-07T01:49:11.218Z,1015.23
2023-02-07T01:50:11.180Z,1015.25
2023-02-07T01:51:11.163Z,1015.22
2023-02-07T01:52:11.130Z,1015.25
2023-02-07T01:53:11.114Z,1015.29
2023-02-07T01:54:11.079Z,1015.25
2023-02-07T01:55:11.069Z,1015.30
2023-02-07T01:56:17.673Z,1015.31
2023-02-07T01:57:11.004Z,1015.32
2023-02-07T01:58:10.979Z,1015.35
2023-02-07T01:59:10.948Z,1015.34
2023-02-07T02:00:10.915Z,1015.37
2023-02-07T02:01:10.917Z,1015.43
2023-02-07T02:02:10.860Z,1015.45
2023-02-07T02:03:10.836Z,1015.45
2023-02-07T02:04:10.810Z,1015.46
2023-02-07T02:05:10.816Z,1015.51
2023-02-07T02:06:10.756Z,1015.50
2023-02-07T02:07:10.731Z,1015.51
2023-02-07T02:08:10.707Z,1015.54
2023-02-07T02:09:10.670Z,1015.51
2023-02-07T02:10:10.647Z,1015.51
2023-02-07T02:11:10.619Z,1015.49
2023-02-07T02:12:10.609Z,1015.55
2023-02-07T02:13:10.563Z,1015.60
2023-02-07T02:14:10.524Z,1015.58
2023-02-07T02:15:10.506Z,1015.54
2023-02-07T02:16:10.497Z,1015.58
2023-02-07T02:17:10.464Z,1015.58
2023-02-07T02:18:10.429Z,1015.52
2023-02-07T02:19:10.398Z,1015.48
2023-02-07T02:20:10.385Z,1015.55
2023-02-07T02:21:10.363Z,1015.53
2023-02-07T02:22:10.331Z,1015.51
2023-02-07T02:23:10.291Z,1015.55
2023-02-07T02:24:10.263Z,1015.47
2023-02-07T02:25:10.237Z,1015.42
2023-02-07T02:26:10.216Z,1015.36
2023-02-07T02:27:10.180Z,1015.37
2023-02-07T02:28:10.201Z,1015.41
2023-02-07T02:29:10.127Z,1015.42
2023-02-07T02:30:10.097Z,1015.37
2023-02-07T02:31:10.130Z,1015.41
2023-02-07T02:32:10.048Z,1015.40
2023-02-07T02:33:10.028Z,1015.37
2023-02-07T02:34:09.997Z,1015.27
2023-02-07T02:35:09.968Z,1015.37
2023-02-07T02:36:09.937Z,1015.28
2023-02-07T02:37:09.907Z,1015.30
2023-02-07T02:38:10.029Z,1015.28
2023-02-07T02:39:09.861Z,1015.24
2023-02-07T02:40:09.821Z,1015.22
2023-02-07T02:41:09.800Z,1015.24
2023-02-07T02:42:09.775Z,1015.21
2023-02-07T02:43:09.743Z,1015.20
2023-02-07T02:44:09.721Z,1015.24
2023-02-07T02:45:09.688Z,1015.25
2023-02-07T02:46:09.743Z,1015.30
2023-02-07T02:47:09.640Z,1015.28
2023-02-07T02:48:09.618Z,1015.23
2023-02-07T02:49:09.577Z,1015.20
2023-02-07T02:50:09.550Z,1015.17
2023-02-07T02:51:09.526Z,1015.18
2023-02-07T02:52:09.494Z,1015.17
2023-02-07T02:53:09.541Z,1015.10
2023-02-07T02:54:09.438Z,1015.16
2023-02-07T02:55:09.416Z,1015.13
2023-02-07T02:56:09.399Z,1015.07
2023-02-07T02:57:09.361Z,1015.03
2023-02-07T02:58:09.326Z,1015.03
2023-02-07T02:59:09.325Z,1015.03
2023-02-07T03:00:09.273Z,1014.95
2023-02-07T03:01:09.253Z,1014.98
2023-02-07T03:02:09.218Z,1015.05
2023-02-07T03:03:09.197Z,1015.03
2023-02-07T03:04:09.177Z,1015.03
2023-02-07T03:05:09.178Z,1015.04
2023-02-07T03:06:09.115Z,1015.03
2023-02-07T03:07:09.091Z,1015.02
2023-02-07T03:08:09.054Z,1015.08
2023-02-07T03:09:09.032Z,1015.06
2023-02-07T03:10:09.011Z,1015.12
2023-02-07T03:11:08.977Z,1015.09
2023-02-07T03:12:08.964Z,1015.10
2023-02-07T03:13:08.926Z,1015.06
2023-02-07T03:14:08.893Z,1015.10
2023-02-07T03:15:08.867Z,1015.01
2023-02-07T03:16:08.898Z,1015.01
2023-02-07T03:17:08.815Z,1014.95
2023-02-07T03:18:08.783Z,1014.99
2023-02-07T03:19:08.755Z,1014.92
2023-02-07T03:20:08.731Z,1014.92
2023-02-07T03:21:08.703Z,1014.96
2023-02-07T03:22:08.669Z,1014.94
2023-02-07T03:23:08.644Z,1014.89
2023-02-07T03:24:08.613Z,1014.84
2023-02-07T03:25:08.593Z,1014.81
2023-02-07T03:26:08.576Z,1014.87
2023-02-07T03:27:08.535Z,1014.91
2023-02-07T03:28:08.547Z,1014.84
2023-02-07T03:29:08.501Z,1014.94
2023-02-07T03:30:08.442Z,1014.96
2023-02-07T03:31:08.446Z,1014.96
2023-02-07T03:32:08.401Z,1015.01
2023-02-07T03:33:08.367Z,1015.03
2023-02-07T03:34:08.330Z,1015.01
2023-02-07T03:35:08.324Z,1015.06
2023-02-07T03:36:08.276Z,1015.10
2023-02-07T03:37:08.255Z,1015.10
2023-02-07T03:38:08.228Z,1015.13
2023-02-07T03:39:08.203Z,1015.16
2023-02-07T03:40:08.169Z,1015.19
2023-02-07T03:41:08.150Z,1015.21
2023-02-07T03:42:08.105Z,1015.19
2023-02-07T03:43:08.088Z,1015.18
2023-02-07T03:44:08.066Z,1015.15
2023-02-07T03:45:08.034Z,1015.15
2023-02-07T03:46:08.002Z,1015.15
2023-02-07T03:47:07.980Z,1015.16
2023-02-07T03:48:07.942Z,1015.17
2023-02-07T03:49:07.946Z,1015.17
2023-02-07T03:50:07.899Z,1015.20
2023-02-07T03:51:07.862Z,1015.23
2023-02-07T03:52:07.844Z,1015.21
2023-02-07T03:53:07.814Z,1015.23
2023-02-07T03:54:07.779Z,1015.21
2023-02-07T03:55:07.751Z,1015.17
2023-02-07T03:56:07.743Z,1015.17
2023-02-07T03:57:07.700Z,1015.10
2023-02-07T03:58:07.665Z,1015.11
2023-02-07T03:59:07.651Z,1015.08
2023-02-07T04:00:07.643Z,1015.09
2023-02-07T04:01:07.659Z,1015.06
2023-02-07T04:02:07.587Z,1015.07
2023-02-07T04:03:07.531Z,1015.12
2023-02-07T04:04:07.500Z,1015.12
2023-02-07T04:05:07.487Z,1015.11
2023-02-07T04:06:07.444Z,1015.14
2023-02-07T04:07:07.434Z,1015.09
2023-02-07T04:08:07.402Z,1015.10
2023-02-07T04:09:07.379Z,1015.06
2023-02-07T04:10:07.344Z,1015.09
2023-02-07T04:11:07.313Z,1015.08
2023-02-07T04:12:07.305Z,1015.10
2023-02-07T04:13:07.256Z,1015.09
2023-02-07T04:14:07.232Z,1015.07
2023-02-07T04:15:07.212Z,1015.07
2023-02-07T04:16:07.212Z,1015.06
2023-02-07T04:17:07.168Z,1015.02
2023-02-07T04:18:07.109Z,1014.96
2023-02-07T04:19:07.089Z,1014.96
2023-02-07T04:20:07.064Z,1014.97
2023-02-07T04:21:07.039Z,1014.96
2023-02-07T04:22:07.007Z,1014.89
2023-02-07T04:23:06.992Z,1014.99
2023-02-07T04:24:06.955Z,1014.98
2023-02-07T04:25:06.932Z,1014.99
2023-02-07T04:26:06.908Z,1015.00
2023-02-07T04:27:06.902Z,1014.96
2023-02-07T04:28:06.854Z,1015.00
2023-02-07T04:29:06.813Z,1015.01
2023-02-07T04:30:06.783Z,1015.03
2023-02-07T04:31:06.760Z,1015.04
2023-02-07T04:32:06.757Z,1015.04
2023-02-07T04:33:06.692Z,1015.06
2023-02-07T04:34:06.673Z,1015.09
2023-02-07T04:35:06.643Z,1015.10
2023-02-07T04:36:06.621Z,1015.08
2023-02-07T04:37:06.609Z,1015.11
2023-02-07T04:38:06.553Z,1015.13
2023-02-07T04:39:06.529Z,1015.11
2023-02-07T04:40:06.492Z,1015.17
2023-02-07T04:41:06.495Z,1015.16
2023-02-07T04:42:06.440Z,1015.21
2023-02-07T04:43:06.418Z,1015.24
2023-02-07T04:44:06.396Z,1015.18
2023-02-07T04:45:06.355Z,1015.23
2023-02-07T04:46:06.339Z,1015.24
2023-02-07T04:47:06.326Z,1015.23
2023-02-07T04:48:06.271Z,1015.23
2023-02-07T04:49:06.253Z,1015.23
2023-02-07T04:50:06.217Z,1015.24
2023-02-07T04:51:06.198Z,1015.24
2023-02-07T04:52:06.175Z,1015.24
2023-02-07T04:53:06.133Z,1015.20
2023-02-07T04:54:06.138Z,1015.21
2023-02-07T04:55:06.093Z,1015.22
2023-02-07T04:56:06.046Z,1015.21
2023-02-07T04:57:06.042Z,1015.22
2023-02-07T04:58:06.005Z,1015.26
2023-02-07T04:59:06.004Z,1015.21
2023-02-07T05:00:05.935Z,1015.22
2023-02-07T05:01:05.990Z,1015.15
2023-02-07T05:02:05.881Z,1015.15
2023-02-07T05:03:05.862Z,1015.17
2023-02-07T05:04:05.832Z,1015.21
2023-02-07T05:05:05.805Z,1015.19
2023-02-07T05:06:05.772Z,1015.18
2023-02-07T05:07:05.762Z,1015.16
2023-02-07T05:08:05.723Z,1015.20
2023-02-07T05:09:05.694Z,1015.19
2023-02-07T05:10:05.661Z,1015.18
2023-02-07T05:11:05.680Z,1015.24
2023-02-07T05:12:05.600Z,1015.27
2023-02-07T05:13:05.582Z,1015.29
2023-02-07T05:14:05.556Z,1015.29
2023-02-07T05:15:05.531Z,1015.34
2023-02-07T05:16:05.490Z,1015.34
2023-02-07T05:17:05.478Z,1015.32
2023-02-07T05:18:05.453Z,1015.31
2023-02-07T05:19:05.424Z,1015.35
2023-02-07T05:20:05.398Z,1015.32
2023-02-07T05:21:05.356Z,1015.33
2023-02-07T05:22:05.332Z,1015.41
2023-02-07T05:23:05.313Z,1015.37
2023-02-07T05:24:05.274Z,1015.37
2023-02-07T05:25:05.247Z,1015.42
2023-02-07T05:26:05.234Z,1015.43
2023-02-07T05:27:05.194Z,1015.50
2023-02-07T05:28:05.236Z,1015.47
2023-02-07T05:29:05.145Z,1015.42
2023-02-07T05:30:05.103Z,1015.42
2023-02-07T05:31:05.135Z,1015.37
2023-02-07T05:32:06.866Z,1015.37
2023-02-07T05:33:05.033Z,1015.36
2023-02-07T05:34:05.009Z,1015.39
2023-02-07T05:35:04.967Z,1015.39
2023-02-07T05:36:04.961Z,1015.40
2023-02-07T05:37:04.911Z,1015.39
2023-02-07T05:38:04.932Z,1015.38
2023-02-07T05:39:04.845Z,1015.38
2023-02-07T05:40:04.828Z,1015.35
2023-02-07T05:41:04.798Z,1015.37
2023-02-07T05:42:04.769Z,1015.44
2023-02-07T05:43:04.741Z,1015.46
2023-02-07T05:44:04.722Z,1015.47
2023-02-07T05:45:04.690Z,1015.48
2023-02-07T05:46:04.682Z,1015.56
2023-02-07T05:47:04.629Z,1015.52
2023-02-07T05:48:04.605Z,1015.55
2023-02-07T05:49:04.565Z,1015.55
2023-02-07T05:50:04.540Z,1015.50
2023-02-07T05:51:04.539Z,1015.54
2023-02-07T05:52:04.486Z,1015.52
2023-02-07T05:53:04.455Z,1015.57
2023-02-07T05:54:04.443Z,1015.55
2023-02-07T05:55:04.395Z,1015.55
2023-02-07T05:56:04.374Z,1015.51
2023-02-07T05:57:04.353Z,1015.49
2023-02-07T05:58:04.376Z,1015.49
2023-02-07T05:59:04.284Z,1015.47
2023-02-07T06:00:04.261Z,1015.52
2023-02-07T06:01:04.229Z,1015.53
2023-02-07T06:02:04.204Z,1015.53
2023-02-07T06:03:04.178Z,1015.55
2023-02-07T06:04:04.150Z,1015.58
2023-02-07T06:05:04.113Z,1015.60
2023-02-07T06:06:04.089Z,1015.58
2023-02-07T06:07:04.065Z,1015.59
2023-02-07T06:08:04.038Z,1015.65
2023-02-07T06:09:04.013Z,1015.65
2023-02-07T06:10:03.982Z,1015.66
2023-02-07T06:11:03.944Z,1015.64
2023-02-07T06:12:05.298Z,1015.58
2023-02-07T06:13:03.895Z,1015.57
2023-02-07T06:14:03.864Z,1015.59
2023-02-07T06:15:03.849Z,1015.61
2023-02-07T06:16:03.842Z,1015.60
2023-02-07T06:17:03.773Z,1015.60
2023-02-07T06:18:03.754Z,1015.58
2023-02-07T06:19:03.721Z,1015.58
2023-02-07T06:20:03.697Z,1015.54
2023-02-07T06:21:03.663Z,1015.51
2023-02-07T06:22:03.639Z,1015.48
2023-02-07T06:23:03.610Z,1015.48
2023-02-07T06:24:03.601Z,1015.50
2023-02-07T06:25:03.584Z,1015.50
2023-02-07T06:26:03.530Z,1015.54
2023-02-07T06:27:03.494Z,1015.54
2023-02-07T06:28:03.520Z,1015.57
2023-02-07T06:29:03.436Z,1015.58
2023-02-07T06:30:03.412Z,1015.64
2023-02-07T06:31:03.497Z,1015.62
2023-02-07T06:32:03.387Z,1015.61
2023-02-07T06:33:03.326Z,1015.64
2023-02-07T06:34:03.308Z,1015.63
2023-02-07T06:35:03.282Z,1015.61
2023-02-07T06:36:03.261Z,1015.65
2023-02-07T06:37:03.228Z,1015.69
2023-02-07T06:38:03.193Z,1015.65
2023-02-07T06:39:03.160Z,1015.66
2023-02-07T06:40:03.135Z,1015.67
2023-02-07T06:41:03.100Z,1015.68
2023-02-07T06:42:03.081Z,1015.69
2023-02-07T06:43:03.045Z,1015.69
2023-02-07T06:44:03.022Z,1015.71
2023-02-07T06:45:02.993Z,1015.70
2023-02-07T06:46:03.006Z,1015.67
2023-02-07T06:47:02.942Z,1015.77
2023-02-07T06:48:02.905Z,1015.77
2023-02-07T06:49:02.875Z,1015.82
2023-02-07T06:50:02.861Z,1015.82
2023-02-07T06:51:02.817Z,1015.90
2023-02-07T06:52:02.794Z,1015.88
2023-02-07T06:53:02.775Z,1015.94
2023-02-07T06:54:02.741Z,1015.95
2023-02-07T06:55:02.713Z,1015.99
2023-02-07T06:56:02.688Z,1016.02
2023-02-07T06:57:02.675Z,1016.04
2023-02-07T06:58:02.624Z,1016.07
2023-02-07T06:59:02.597Z,1016.11
2023-02-07T07:00:02.578Z,1016.13
2023-02-07T07:01:02.537Z,1016.14
2023-02-07T07:02:02.570Z,1016.18
2023-02-07T07:03:02.524Z,1016.20
2023-02-07T07:04:02.457Z,1016.19
2023-02-07T07:05:02.449Z,1016.20
2023-02-07T07:06:02.412Z,1016.18
2023-02-07T07:07:02.365Z,1016.23
2023-02-07T07:08:02.345Z,1016.22
2023-02-07T07:09:02.329Z,1016.27
2023-02-07T07:10:02.342Z,1016.28
2023-02-07T07:11:02.270Z,1016.33
2023-02-07T07:12:02.231Z,1016.30
2023-02-07T07:13:02.205Z,1016.34
2023-02-07T07:14:02.180Z,1016.32
2023-02-07T07:15:02.157Z,1016.35
2023-02-07T07:16:02.215Z,1016.31
2023-02-07T07:17:02.106Z,1016.35
2023-02-07T07:18:02.063Z,1016.37
2023-02-07T07:19:02.032Z,1016.36
2023-02-07T07:20:02.008Z,1016.41
2023-02-07T07:21:01.972Z,1016.40
2023-02-07T07:22:01.976Z,1016.39
2023-02-07T07:23:01.931Z,1016.39
2023-02-07T07:24:01.905Z,1016.36
2023-02-07T07:25:01.874Z,1016.36
2023-02-07T07:26:01.833Z,1016.27
2023-02-07T07:27:01.881Z,1016.32
2023-02-07T07:28:01.805Z,1016.31
2023-02-07T07:29:01.750Z,1016.31
2023-02-07T07:30:01.721Z,1016.30
2023-02-07T07:31:01.812Z,1016.35
2023-02-07T07:32:01.669Z,1016.34
2023-02-07T07:33:01.633Z,1016.35
2023-02-07T07:34:01.632Z,1016.36
2023-02-07T07:35:01.580Z,1016.43
2023-02-07T07:36:01.569Z,1016.43
2023-02-07T07:37:01.521Z,1016.48
2023-02-07T07:38:01.497Z,1016.50
2023-02-07T07:39:01.500Z,1016.53
2023-02-07T07:40:01.461Z,1016.48
2023-02-07T07:41:01.404Z,1016.48
2023-02-07T07:42:01.382Z,1016.53
2023-02-07T07:43:01.355Z,1016.51
2023-02-07T07:44:01.325Z,1016.57
2023-02-07T07:45:01.292Z,1016.61
2023-02-07T07:46:01.267Z,1016.60
2023-02-07T07:47:01.231Z,1016.64
2023-02-07T07:48:01.306Z,1016.61
2023-02-07T07:49:01.179Z,1016.60
2023-02-07T07:50:01.153Z,1016.61
2023-02-07T07:51:01.260Z,1016.66
2023-02-07T07:52:01.097Z,1016.61
2023-02-07T07:53:01.063Z,1016.60
2023-02-07T07:54:01.036Z,1016.60
2023-02-07T07:55:01.007Z,1016.64
2023-02-07T07:56:00.983Z,1016.67
2023-02-07T07:57:00.951Z,1016.69
2023-02-07T07:58:00.938Z,1016.65
2023-02-07T07:59:05.946Z,1016.65
2023-02-07T08:00:00.874Z,1016.60
2023-02-07T08:01:00.918Z,1016.60
2023-02-07T08:02:00.826Z,1016.65
2023-02-07T08:03:00.780Z,1016.64
2023-02-07T08:04:00.796Z,1016.67
2023-02-07T08:05:00.735Z,1016.71
2023-02-07T08:06:00.732Z,1016.74
2023-02-07T08:07:00.711Z,1016.80
2023-02-07T08:08:00.649Z,1016.79
2023-02-07T08:09:00.629Z,1016.78
2023-02-07T08:10:00.588Z,1016.75
2023-02-07T08:11:00.573Z,1016.76
2023-02-07T08:12:00.544Z,1016.78
2023-02-07T08:13:00.506Z,1016.80
2023-02-07T08:14:00.477Z,1016.82
2023-02-07T08:15:00.454Z,1016.82
2023-02-07T08:16:00.582Z,1016.83
2023-02-07T08:17:00.391Z,1016.81
2023-02-07T08:18:00.373Z,1016.81
2023-02-07T08:19:00.348Z,1016.77
2023-02-07T08:20:00.321Z,1016.75
2023-02-07T08:21:00.285Z,1016.71
2023-02-07T08:22:00.259Z,1016.64
2023-02-07T08:23:00.233Z,1016.71
2023-02-07T08:24:00.212Z,1016.75
2023-02-07T08:25:00.172Z,1016.69
2023-02-07T08:26:00.153Z,1016.68
2023-02-07T08:27:00.126Z,1016.68
2023-02-07T08:28:01.291Z,1016.71
2023-02-07T08:29:00.103Z,1016.75
2023-02-07T08:30:00.047Z,1016.73
2023-02-07T08:31:00.056Z,1016.73
2023-02-07T08:32:00.015Z,1016.73
2023-02-07T08:32:59.975Z,1016.72
2023-02-07T08:33:59.953Z,1016.76
2023-02-07T08:34:59.914Z,1016.79
2023-02-07T08:35:59.895Z,1016.81
2023-02-07T08:36:59.878Z,1016.77
2023-02-07T08:37:59.837Z,1016.76
2023-02-07T08:38:59.803Z,1016.75
2023-02-07T08:39:59.781Z,1016.76
2023-02-07T08:40:59.749Z,1016.78
2023-02-07T08:41:59.726Z,1016.78
2023-02-07T08:42:59.715Z,1016.83
2023-02-07T08:43:59.681Z,1016.86
2023-02-07T08:44:59.668Z,1016.83
2023-02-07T08:45:59.751Z,1016.88
2023-02-07T08:46:59.662Z,1016.90
2023-02-07T08:47:59.612Z,1016.92
2023-02-07T08:48:59.553Z,1016.94
2023-02-07T08:49:59.523Z,1016.93
2023-02-07T08:50:59.496Z,1016.91
2023-02-07T08:51:59.471Z,1016.97
2023-02-07T08:52:59.439Z,1017.03
2023-02-07T08:54:00.180Z,1017.03
2023-02-07T08:54:59.384Z,1017.01
2023-02-07T08:55:59.518Z,1017.01
2023-02-07T08:56:59.341Z,1017.03
2023-02-07T08:57:59.320Z,1017.04
2023-02-07T08:58:59.295Z,1017.08
2023-02-07T08:59:59.282Z,1017.12
2023-02-07T09:00:59.261Z,1017.12
2023-02-07T09:01:59.247Z,1017.14
2023-02-07T09:02:59.193Z,1017.16
2023-02-07T09:03:59.173Z,1017.20
2023-02-07T09:04:59.127Z,1017.21
2023-02-07T09:05:59.118Z,1017.22
2023-02-07T09:06:59.086Z,1017.16
2023-02-07T09:07:59.061Z,1017.21
2023-02-07T09:08:59.028Z,1017.18
2023-02-07T09:09:59.016Z,1017.16
2023-02-07T09:10:59.012Z,1017.18
2023-02-07T09:11:58.952Z,1017.17
2023-02-07T09:12:58.944Z,1017.17
2023-02-07T09:13:58.903Z,1017.18
2023-02-07T09:14:58.883Z,1017.16
2023-02-07T09:15:58.855Z,1017.17
2023-02-07T09:16:58.863Z,1017.14
2023-02-07T09:17:58.804Z,1017.14
2023-02-07T09:18:58.766Z,1017.12
2023-02-07T09:19:58.749Z,1017.10
2023-02-07T09:20:58.731Z,1017.08
2023-02-07T09:21:58.702Z,1017.05
2023-02-07T09:22:58.674Z,1017.08
2023-02-07T09:23:58.639Z,1017.06
2023-02-07T09:24:58.624Z,1017.07
2023-02-07T09:25:58.658Z,1017.05
2023-02-07T09:26:58.570Z,1017.08
2023-02-07T09:27:58.568Z,1017.11
2023-02-07T09:28:58.509Z,1017.02
2023-02-07T09:29:58.499Z,1017.02
2023-02-07T09:30:58.561Z,1017.00
2023-02-07T09:31:58.582Z,1016.99
2023-02-07T09:32:58.423Z,1016.99
2023-02-07T09:33:58.386Z,1017.02
2023-02-07T09:34:58.373Z,1017.07
2023-02-07T09:35:58.343Z,1017.10
2023-02-07T09:36:58.302Z,1017.02
2023-02-07T09:37:58.304Z,1017.03
2023-02-07T09:38:58.266Z,1017.05
2023-02-07T09:39:58.229Z,1017.01
2023-02-07T09:40:58.217Z,1017.09
2023-02-07T09:41:58.191Z,1017.04
2023-02-07T09:42:58.478Z,1017.00
2023-02-07T09:43:58.332Z,1017.00
2023-02-07T09:44:58.348Z,1017.02
2023-02-07T09:45:58.187Z,1017.02
2023-02-07T09:46:58.051Z,1017.07
2023-02-07T09:47:58.022Z,1017.10
2023-02-07T09:48:58.000Z,1017.05
2023-02-07T09:49:57.990Z,1017.04
2023-02-07T09:50:57.945Z,1017.01
2023-02-07T09:51:57.940Z,1017.03
2023-02-07T09:52:57.894Z,1017.06
2023-02-07T09:53:57.868Z,1017.04
2023-02-07T09:54:57.842Z,1017.09
2023-02-07T09:55:57.812Z,1017.04
2023-02-07T09:56:57.786Z,1017.05
2023-02-07T09:57:57.783Z,1017.01
2023-02-07T09:58:57.740Z,1017.01
2023-02-07T09:59:57.723Z,1016.96
2023-02-07T10:00:57.689Z,1016.99
2023-02-07T10:01:57.661Z,1017.02
2023-02-07T10:02:57.627Z,1017.02
2023-02-07T10:03:57.594Z,1016.98
2023-02-07T10:04:57.573Z,1017.02
2023-02-07T10:06:01.510Z,1017.00
2023-02-07T10:06:57.528Z,1017.03
2023-02-07T10:07:57.510Z,1016.94
2023-02-07T10:08:57.472Z,1017.04
2023-02-07T10:09:57.462Z,1017.05
2023-02-07T10:10:57.431Z,1017.02
2023-02-07T10:11:57.426Z,1017.02
2023-02-07T10:12:57.370Z,1017.03
2023-02-07T10:13:57.339Z,1017.09
2023-02-07T10:14:57.324Z,1017.06
2023-02-07T10:15:57.367Z,1017.08
2023-02-07T10:16:57.264Z,1017.12
2023-02-07T10:17:57.245Z,1017.10
2023-02-07T10:18:57.220Z,1017.13
2023-02-07T10:19:57.181Z,1017.07
2023-02-07T10:20:59.902Z,1017.07
2023-02-07T10:21:57.153Z,1017.05
2023-02-07T10:22:57.131Z,1017.05
2023-02-07T10:23:57.121Z,1017.02
2023-02-07T10:24:57.074Z,1017.00
2023-02-07T10:25:57.056Z,1016.97
2023-02-07T10:26:57.047Z,1016.96
2023-02-07T10:27:57.086Z,1016.94
2023-02-07T10:28:56.981Z,1016.93
2023-02-07T10:29:56.950Z,1016.97
2023-02-07T10:30:57.034Z,1017.00
2023-02-07T10:31:56.892Z,1016.94
2023-02-07T10:32:56.864Z,1016.93
2023-02-07T10:33:56.844Z,1016.95
2023-02-07T10:34:56.810Z,1016.99
2023-02-07T10:35:56.808Z,1016.99
2023-02-07T10:36:56.759Z,1016.99
2023-02-07T10:37:56.733Z,1016.99
2023-02-07T10:39:07.816Z,1016.99
2023-02-07T10:39:56.699Z,1016.97
2023-02-07T10:40:56.661Z,1016.95
2023-02-07T10:41:56.631Z,1016.93
2023-02-07T10:42:56.631Z,1016.95
2023-02-07T10:43:56.603Z,1016.92
2023-02-07T10:44:56.564Z,1016.88
2023-02-07T10:46:00.836Z,1016.86
2023-02-07T10:46:56.533Z,1016.92
2023-02-07T10:47:56.481Z,1016.90
2023-02-07T10:48:56.465Z,1016.90
2023-02-07T10:49:56.436Z,1016.87
2023-02-07T10:50:56.415Z,1016.90
2023-02-07T10:51:56.382Z,1016.85
2023-02-07T10:52:56.372Z,1016.82
2023-02-07T10:53:58.140Z,1016.87
2023-02-07T10:54:56.324Z,1016.84
2023-02-07T10:55:56.294Z,1016.87
2023-02-07T10:57:01.736Z,1016.89
2023-02-07T10:58:02.798Z,1016.91
2023-02-07T10:58:56.222Z,1016.86
2023-02-07T10:59:56.216Z,1016.86
2023-02-07T11:00:56.184Z,1016.85
2023-02-07T11:01:56.251Z,1016.84
2023-02-07T11:02:56.179Z,1016.78
2023-02-07T11:03:56.124Z,1016.82
2023-02-07T11:04:56.082Z,1016.86
2023-02-07T11:05:56.071Z,1016.79
2023-02-07T11:06:56.032Z,1016.83
2023-02-07T11:07:56.029Z,1016.75
2023-02-07T11:08:55.985Z,1016.74
2023-02-07T11:09:55.960Z,1016.79
2023-02-07T11:10:55.962Z,1016.76
2023-02-07T11:11:55.965Z,1016.74
2023-02-07T11:12:55.896Z,1016.77
2023-02-07T11:13:55.878Z,1016.75
2023-02-07T11:14:55.848Z,1016.79
2023-02-07T11:15:55.867Z,1016.78
2023-02-07T11:16:55.827Z,1016.79
2023-02-07T11:17:55.919Z,1016.82
2023-02-07T11:18:55.764Z,1016.84
2023-02-07T11:19:55.744Z,1016.82
2023-02-07T11:20:55.713Z,1016.78
2023-02-07T11:21:55.687Z,1016.80
2023-02-07T11:22:55.665Z,1016.76
2023-02-07T11:23:56.737Z,1016.71
2023-02-07T11:24:55.617Z,1016.76
2023-02-07T11:25:55.594Z,1016.76
2023-02-07T11:26:55.572Z,1016.76
2023-02-07T11:27:55.584Z,1016.73
2023-02-07T11:28:55.531Z,1016.74
2023-02-07T11:29:55.508Z,1016.71
2023-02-07T11:30:55.604Z,1016.74
2023-02-07T11:31:55.457Z,1016.75
2023-02-07T11:32:55.444Z,1016.66
2023-02-07T11:33:55.413Z,1016.71
2023-02-07T11:34:55.397Z,1016.67
2023-02-07T11:35:55.400Z,1016.74
2023-02-07T11:36:55.345Z,1016.72
2023-02-07T11:37:55.320Z,1016.79
2023-02-07T11:38:55.299Z,1016.79
2023-02-07T11:39:55.281Z,1016.76
2023-02-07T11:40:55.254Z,1016.76
2023-02-07T11:41:55.227Z,1016.78
2023-02-07T11:42:55.208Z,1016.73
2023-02-07T11:43:55.192Z,1016.72
2023-02-07T11:44:55.207Z,1016.72
2023-02-07T11:45:55.144Z,1016.71
2023-02-07T11:46:55.121Z,1016.73
2023-02-07T11:47:55.112Z,1016.76
2023-02-07T11:48:55.088Z,1016.72
2023-02-07T11:49:55.069Z,1016.76
2023-02-07T11:50:55.039Z,1016.79
2023-02-07T11:51:55.016Z,1016.82
2023-02-07T11:52:55.034Z,1016.80
2023-02-07T11:53:54.971Z,1016.80
2023-02-07T11:54:54.953Z,1016.82
2023-02-07T11:55:54.930Z,1016.85
2023-02-07T11:56:54.907Z,1016.80
2023-02-07T11:57:54.879Z,1016.77
2023-02-07T11:58:54.870Z,1016.78
2023-02-07T11:59:54.845Z,1016.79
2023-02-07T12:00:54.816Z,1016.77
2023-02-07T12:01:54.858Z,1016.75
2023-02-07T12:02:54.777Z,1016.74
2023-02-07T12:03:54.751Z,1016.75
2023-02-07T12:04:54.857Z,1016.75